Time;durP1;ratioP1;P1;durP2;ratioP2;P2;SDS_P1;SDS_P2;PMS_P1;PMS_P2;Temp;Humidity;BMP_temperature;BMP_pressure;BME280_temperature;BME280_humidity;BME280_pressure;Samples;Min_cycle;Max_cycle;Signal;HPM_P1;HPM_P2
2022/07/10 00:01:33;;;;;;;4.07;1.40;;;16.40;1.00;;;;;;5013490;28;20498;-88
2022/07/10 00:04:00;;;;;;;5.40;1.50;;;16.30;1.00;;;;;;5012601;28;20203;-87
2022/07/10 00:06:27;;;;;;;4.65;1.67;;;16.20;1.00;;;;;;5026807;28;20234;-90
2022/07/10 00:08:55;;;;;;;4.28;1.25;;;16.20;35.30;;;;;;5032641;28;20216;-85
2022/07/10 00:11:22;;;;;;;5.88;1.60;;;16.20;76.00;;;;;;5031245;28;20569;-85
2022/07/10 00:13:48;;;;;;;4.70;1.20;;;16.20;38.00;;;;;;5029115;28;20229;-87
2022/07/10 00:16:15;;;;;;;4.65;1.35;;;16.10;99.90;;;;;;5029172;28;20194;-89
2022/07/10 00:18:44;;;;;;;5.35;1.40;;;16.10;99.90;;;;;;5013004;28;20754;-91
2022/07/10 00:21:11;;;;;;;8.00;1.73;;;16.10;99.90;;;;;;5012624;28;20399;-89
2022/07/10 00:23:38;;;;;;;4.43;1.60;;;16.00;99.90;;;;;;5021765;28;20214;-92
2022/07/10 00:26:05;;;;;;;6.72;1.67;;;16.00;99.90;;;;;;5032702;28;20797;-89
2022/07/10 00:28:32;;;;;;;6.47;1.52;;;16.00;99.90;;;;;;5032949;28;20274;-88
2022/07/10 00:30:59;;;;;;;5.72;1.55;;;16.00;99.90;;;;;;5031858;28;20256;-90
2022/07/10 00:33:26;;;;;;;3.35;1.58;;;16.00;99.90;;;;;;5032405;28;20272;-89
2022/07/10 00:35:54;;;;;;;4.40;1.45;;;16.00;99.90;;;;;;5032091;28;20922;-89
2022/07/10 00:38:21;;;;;;;5.68;1.52;;;16.00;99.90;;;;;;5031912;28;20529;-90
2022/07/10 00:40:48;;;;;;;8.85;1.83;;;16.00;99.90;;;;;;5032514;28;20510;-89
2022/07/10 00:43:15;;;;;;;4.82;1.55;;;16.00;99.90;;;;;;5032406;28;20234;-92
2022/07/10 00:45:42;;;;;;;7.57;2.05;;;15.90;99.90;;;;;;5032374;28;20305;-89
2022/07/10 00:48:10;;;;;;;8.38;1.58;;;15.90;99.90;;;;;;5032111;28;20741;-89
2022/07/10 00:50:37;;;;;;;7.78;1.38;;;15.90;99.90;;;;;;5032788;28;20190;-89
2022/07/10 00:53:05;;;;;;;3.97;1.30;;;15.90;99.90;;;;;;5032075;28;20254;-90
2022/07/10 00:55:35;;;;;;;4.15;1.15;;;15.90;99.90;;;;;;5028970;28;20586;-91
2022/07/10 00:58:02;;;;;;;3.83;1.20;;;15.80;99.90;;;;;;5032203;28;20202;-91
2022/07/10 01:00:31;;;;;;;4.75;1.10;;;15.70;99.90;;;;;;5031792;28;20242;-90
2022/07/10 01:02:57;;;;;;;5.07;1.38;;;15.70;99.90;;;;;;5032360;28;20508;-90
2022/07/10 01:05:24;;;;;;;2.85;1.13;;;15.70;99.90;;;;;;5033206;28;20544;-91
2022/07/10 01:07:51;;;;;;;6.00;1.55;;;15.70;99.90;;;;;;5035841;28;20286;-90
2022/07/10 01:10:20;;;;;;;3.40;1.30;;;15.70;1.00;;;;;;5036007;28;20209;-91
2022/07/10 01:12:48;;;;;;;8.10;1.83;;;15.70;99.90;;;;;;5035542;28;20729;-91
2022/07/10 01:15:15;;;;;;;5.85;1.30;;;15.70;1.00;;;;;;5035669;28;20194;-89
2022/07/10 01:17:42;;;;;;;4.35;1.30;;;15.70;1.00;;;;;;5055765;22;20646;-88
2022/07/10 01:20:10;;;;;;;7.68;1.92;;;15.60;1.00;;;;;;5035840;28;20283;-90
2022/07/10 01:22:38;;;;;;;3.17;1.20;;;15.60;1.00;;;;;;5036080;28;20492;-87
2022/07/10 01:25:06;;;;;;;3.30;1.27;;;15.60;1.00;;;;;;5047725;28;20210;-88
2022/07/10 01:27:33;;;;;;;5.93;1.52;;;15.60;1.00;;;;;;5055572;28;20201;-88
2022/07/10 01:30:01;;;;;;;2.92;1.35;;;15.60;1.00;;;;;;5041022;28;20297;-88
2022/07/10 01:32:28;;;;;;;4.85;1.42;;;15.60;1.00;;;;;;5040960;28;20247;-90
2022/07/10 01:34:55;;;;;;;3.67;1.58;;;15.60;1.00;;;;;;5055821;28;20200;-87
2022/07/10 01:37:22;;;;;;;7.03;1.58;;;15.60;1.00;;;;;;5055274;28;20206;-89
2022/07/10 01:39:50;;;;;;;5.50;1.38;;;15.60;1.00;;;;;;5056555;28;20245;-87
2022/07/10 01:42:17;;;;;;;3.78;1.27;;;15.70;99.90;;;;;;5055064;28;20499;-89
2022/07/10 01:44:44;;;;;;;5.35;1.60;;;15.70;1.00;;;;;;5055980;28;20304;-87
2022/07/10 01:47:11;;;;;;;3.65;1.35;;;15.70;1.00;;;;;;5044715;28;20232;-88
2022/07/10 01:49:38;;;;;;;5.28;1.58;;;15.70;1.00;;;;;;5037075;28;20203;-87
2022/07/10 01:52:05;;;;;;;7.13;1.65;;;15.70;1.00;;;;;;5036599;28;20232;-89
2022/07/10 01:54:33;;;;;;;5.63;1.20;;;15.70;1.00;;;;;;5042815;28;20216;-91
2022/07/10 01:57:01;;;;;;;4.97;1.33;;;15.70;1.00;;;;;;5055100;28;20203;-91
2022/07/10 01:59:28;;;;;;;3.42;1.30;;;15.70;1.00;;;;;;5054490;28;20469;-91
2022/07/10 02:01:55;;;;;;;9.45;1.80;;;15.70;1.00;;;;;;5036192;28;20554;-90
2022/07/10 02:07:06;;;;;;;4.43;1.35;;;15.70;1.00;;;;;;5048649;28;20379;-91
2022/07/10 02:09:33;;;;;;;3.92;1.60;;;15.70;1.00;;;;;;5060977;28;20208;-91
2022/07/10 02:12:02;;;;;;;3.17;1.33;;;15.80;1.00;;;;;;5065570;28;20513;-88
2022/07/10 02:14:29;;;;;;;7.43;1.58;;;15.80;1.00;;;;;;5055138;28;20285;-91
2022/07/10 02:16:56;;;;;;;3.47;1.52;;;15.80;1.00;;;;;;5055213;28;20230;-91
2022/07/10 02:19:23;;;;;;;4.72;1.73;;;15.90;1.00;;;;;;5055030;28;20198;-91
2022/07/10 02:21:50;;;;;;;3.95;1.85;;;16.00;1.00;;;;;;5037250;28;20217;-91
2022/07/10 02:24:17;;;;;;;6.40;1.85;;;16.00;1.00;;;;;;5034260;28;20194;-90
2022/07/10 02:26:44;;;;;;;6.32;1.70;;;16.10;1.00;;;;;;5049028;28;20241;-90
2022/07/10 02:29:13;;;;;;;4.88;1.60;;;16.10;1.00;;;;;;5054383;28;20206;-89
2022/07/10 02:31:41;;;;;;;5.35;1.50;;;16.00;1.00;;;;;;5053995;28;20241;-91
2022/07/10 02:34:08;;;;;;;4.18;1.48;;;16.00;1.00;;;;;;5054076;28;20237;-90
2022/07/10 02:36:36;;;;;;;5.50;1.63;;;16.10;1.00;;;;;;5053872;28;20601;-89
2022/07/10 02:39:03;;;;;;;3.92;1.38;;;16.10;1.00;;;;;;5053656;28;20209;-88
2022/07/10 02:41:30;;;;;;;5.60;1.30;;;16.10;1.00;;;;;;5053330;28;20688;-87
2022/07/10 02:43:58;;;;;;;7.32;1.40;;;16.10;1.00;;;;;;5045903;28;20231;-91
2022/07/10 02:46:27;;;;;;;6.80;2.15;;;16.10;1.00;;;;;;5033283;28;20337;-90
2022/07/10 02:48:54;;;;;;;6.18;1.60;;;16.10;1.00;;;;;;5035157;28;20199;-90
2022/07/10 02:51:22;;;;;;;5.80;2.03;;;16.20;1.00;;;;;;5054020;28;20230;-91
2022/07/10 02:53:49;;;;;;;6.97;1.63;;;16.20;1.00;;;;;;5053368;28;20205;-88
2022/07/10 02:56:16;;;;;;;5.43;1.73;;;16.20;1.00;;;;;;5053539;28;20194;-92
2022/07/10 02:58:43;;;;;;;6.10;1.45;;;16.20;1.00;;;;;;5040472;28;20221;-88
2022/07/10 03:01:10;;;;;;;5.57;1.58;;;16.20;1.00;;;;;;5033355;28;20501;-91
2022/07/10 03:03:39;;;;;;;4.63;1.50;;;16.20;1.00;;;;;;5033514;28;20542;-90
2022/07/10 03:06:06;;;;;;;4.43;1.40;;;16.20;1.00;;;;;;5032604;28;20226;-91
2022/07/10 03:08:33;;;;;;;6.25;1.98;;;16.20;1.00;;;;;;5051612;28;20224;-91
2022/07/10 03:11:00;;;;;;;7.43;1.88;;;16.20;1.00;;;;;;5053439;28;20198;-88
2022/07/10 03:13:27;;;;;;;3.63;1.33;;;16.20;1.00;;;;;;5052732;28;20615;-89
2022/07/10 03:15:55;;;;;;;6.72;1.80;;;16.30;1.00;;;;;;5053277;28;20230;-90
2022/07/10 03:18:22;;;;;;;6.57;1.75;;;16.30;1.00;;;;;;5052377;28;20210;-91
2022/07/10 03:20:51;;;;;;;7.57;1.40;;;16.30;1.00;;;;;;5045953;28;20210;-86
2022/07/10 03:23:18;;;;;;;8.63;1.67;;;16.30;1.00;;;;;;5031784;28;20199;-89
2022/07/10 03:25:45;;;;;;;8.57;1.60;;;16.30;1.00;;;;;;5043559;28;20296;-91
2022/07/10 03:28:11;;;;;;;5.18;1.42;;;16.40;1.00;;;;;;5051523;28;20212;-93
2022/07/10 03:30:39;;;;;;;5.68;1.55;;;16.40;1.00;;;;;;5046686;28;20210;-89
2022/07/10 03:33:05;;;;;;;6.75;2.33;;;16.30;1.00;;;;;;5051530;28;20723;-91
2022/07/10 03:35:33;;;;;;;8.45;1.70;;;16.40;1.00;;;;;;5052531;28;20206;-94
2022/07/10 03:38:02;;;;;;;5.38;1.45;;;16.40;1.00;;;;;;5033499;28;20202;-91
2022/07/10 03:40:29;;;;;;;5.18;1.80;;;16.40;1.00;;;;;;5032509;28;20305;-92
2022/07/10 03:42:56;;;;;;;3.85;1.35;;;16.40;1.00;;;;;;5032703;28;20670;-90
2022/07/10 03:45:22;;;;;;;6.50;1.48;;;16.40;1.00;;;;;;5032768;28;20289;-88
2022/07/10 03:47:49;;;;;;;8.98;2.00;;;16.30;1.00;;;;;;5032508;28;20267;-90
2022/07/10 03:50:16;;;;;;;6.30;2.15;;;16.30;1.00;;;;;;5032128;28;20293;-90
2022/07/10 03:52:44;;;;;;;7.80;1.65;;;16.40;1.00;;;;;;5047990;28;20270;-91
2022/07/10 03:55:12;;;;;;;5.97;1.63;;;16.40;1.00;;;;;;5050731;28;20205;-90
2022/07/10 03:57:53;;;;;;;4.75;1.50;;;16.40;1.00;;;;;;5037795;28;20535;-91
2022/07/10 04:00:22;;;;;;;4.63;1.40;;;16.40;1.00;;;;;;5028991;28;20277;-91
2022/07/10 04:02:49;;;;;;;3.88;1.25;;;16.40;1.00;;;;;;5038351;28;20213;-89
2022/07/10 04:05:16;;;;;;;4.22;1.42;;;16.50;1.00;;;;;;5051711;28;20205;-90
2022/07/10 04:07:43;;;;;;;2.60;1.38;;;16.50;1.00;;;;;;5049458;28;20784;-94
2022/07/10 04:10:12;;;;;;;6.93;1.65;;;16.40;1.00;;;;;;5047209;28;20216;-90
2022/07/10 04:12:39;;;;;;;6.05;2.05;;;16.50;1.00;;;;;;5037764;28;20225;-91
2022/07/10 04:15:07;;;;;;;4.13;1.50;;;16.50;1.00;;;;;;5031641;28;20587;-90
2022/07/10 04:17:34;;;;;;;6.72;1.38;;;16.50;1.00;;;;;;5032059;28;20238;-92
2022/07/10 04:20:01;;;;;;;5.72;1.65;;;16.50;1.00;;;;;;5042273;28;20218;-89
2022/07/10 04:22:28;;;;;;;5.07;1.27;;;16.50;1.00;;;;;;5050783;28;20205;-90
2022/07/10 04:24:56;;;;;;;7.22;1.80;;;16.40;1.00;;;;;;5052148;28;20228;-90
2022/07/10 04:27:24;;;;;;;5.18;1.58;;;16.50;1.00;;;;;;5052023;28;20225;-89
2022/07/10 04:29:51;;;;;;;6.43;1.77;;;16.50;1.00;;;;;;5051213;28;20214;-93
2022/07/10 04:32:18;;;;;;;5.55;1.65;;;16.50;1.00;;;;;;5051449;28;20210;-88
2022/07/10 04:34:45;;;;;;;7.50;1.58;;;16.60;1.00;;;;;;5049845;28;20504;-87
2022/07/10 04:37:12;;;;;;;3.63;1.33;;;16.60;1.00;;;;;;5050591;28;20289;-89
2022/07/10 04:39:40;;;;;;;4.63;1.20;;;16.60;1.00;;;;;;5050285;28;20270;-88
2022/07/10 04:42:08;;;;;;;5.03;1.45;;;16.60;1.00;;;;;;5049859;28;20202;-90
2022/07/10 04:44:37;;;;;;;5.93;1.60;;;16.60;1.00;;;;;;5049354;28;20291;-90
2022/07/10 04:47:05;;;;;;;8.65;1.45;;;16.50;1.00;;;;;;5052023;28;20221;-92
2022/07/10 04:49:32;;;;;;;3.90;1.40;;;16.60;1.00;;;;;;5052389;28;20545;-88
2022/07/10 04:51:59;;;;;;;3.50;1.15;;;16.60;1.00;;;;;;5046355;28;20245;-87
2022/07/10 04:54:26;;;;;;;3.58;1.42;;;16.60;1.00;;;;;;5041893;28;20235;-89
2022/07/10 04:56:53;;;;;;;5.07;1.77;;;16.60;1.00;;;;;;5049754;28;20289;-93
2022/07/10 04:59:20;;;;;;;5.90;1.95;;;16.60;1.00;;;;;;5052153;28;20197;-90
2022/07/10 05:01:48;;;;;;;9.20;2.05;;;16.60;1.00;;;;;;5049932;28;20538;-84
2022/07/10 05:04:18;;;;;;;5.13;1.40;;;16.60;1.00;;;;;;5050956;28;20496;-88
2022/07/10 05:06:45;;;;;;;2.70;1.30;;;16.70;1.00;;;;;;5049682;28;20225;-91
2022/07/10 05:09:12;;;;;;;4.45;1.42;;;16.70;1.00;;;;;;5045956;28;20616;-89
2022/07/10 05:11:39;;;;;;;3.20;1.33;;;16.70;1.00;;;;;;5051609;28;20198;-88
2022/07/10 05:14:06;;;;;;;7.93;2.00;;;16.70;1.00;;;;;;5051415;28;20214;-90
2022/07/10 05:16:33;;;;;;;4.93;1.25;;;16.70;1.00;;;;;;5051161;28;20249;-90
2022/07/10 05:19:01;;;;;;;7.78;1.40;;;16.70;1.00;;;;;;5051234;28;20286;-89
2022/07/10 05:21:28;;;;;;;5.88;1.65;;;16.70;1.00;;;;;;5051640;28;20198;-89
2022/07/10 05:23:55;;;;;;;6.03;1.58;;;16.80;1.00;;;;;;5050977;28;20198;-91
2022/07/10 05:26:22;;;;;;;8.57;1.48;;;16.90;1.00;;;;;;5051236;28;20220;-91
2022/07/10 05:28:48;;;;;;;3.05;1.42;;;16.80;1.00;;;;;;5051676;28;20240;-84
2022/07/10 05:31:15;;;;;;;3.45;1.30;;;16.80;1.00;;;;;;5050696;28;20194;-85
2022/07/10 05:33:43;;;;;;;3.15;1.35;;;16.90;1.00;;;;;;5051033;28;20487;-85
2022/07/10 05:36:11;;;;;;;4.18;1.67;;;16.90;1.00;;;;;;5051227;28;20236;-88
2022/07/10 05:38:38;;;;;;;3.00;1.10;;;16.90;1.00;;;;;;5046695;28;20681;-86
2022/07/10 05:41:05;;;;;;;3.70;1.25;;;17.00;1.00;;;;;;5044461;28;20317;-86
2022/07/10 05:43:32;;;;;;;3.20;1.40;;;17.00;1.00;;;;;;5047439;28;20245;-84
2022/07/10 05:45:59;;;;;;;8.05;1.40;;;17.00;1.00;;;;;;5049368;28;20214;-86
2022/07/10 05:48:26;;;;;;;3.95;1.65;;;17.00;1.00;;;;;;5047624;28;20234;-91
2022/07/10 05:50:53;;;;;;;3.70;1.50;;;17.00;1.00;;;;;;5037016;28;20212;-84
2022/07/10 05:53:22;;;;;;;5.18;1.20;;;17.10;1.00;;;;;;5034650;28;20202;-90
2022/07/10 05:55:48;;;;;;;5.53;1.45;;;17.10;1.00;;;;;;5041007;28;20210;-85
2022/07/10 05:58:16;;;;;;;3.42;1.20;;;17.20;1.00;;;;;;5053924;28;20283;-85
2022/07/10 06:00:44;;;;;;;4.60;1.60;;;17.30;1.00;;;;;;5054954;28;20198;-86
2022/07/10 06:03:11;;;;;;;2.03;1.27;;;17.40;1.00;;;;;;5053737;28;20297;-90
2022/07/10 06:05:38;;;;;;;1.92;1.10;;;17.40;1.00;;;;;;5053712;28;20237;-89
2022/07/10 06:08:05;;;;;;;2.80;1.17;;;17.50;1.00;;;;;;5053505;28;20234;-87
2022/07/10 06:10:33;;;;;;;3.80;1.40;;;17.60;1.00;;;;;;5053862;28;20208;-86
2022/07/10 06:13:00;;;;;;;5.25;1.40;;;17.50;1.00;;;;;;5053315;28;20202;-90
2022/07/10 06:15:27;;;;;;;4.03;1.23;;;17.50;1.00;;;;;;5053858;28;20259;-85
2022/07/10 06:17:57;;;;;;;4.95;1.20;;;17.50;1.00;;;;;;5053860;28;20226;-88
2022/07/10 06:20:25;;;;;;;8.73;1.73;;;17.50;1.00;;;;;;5053315;28;20192;-85
2022/07/10 06:22:52;;;;;;;4.43;1.30;;;17.50;99.90;;;;;;5051623;28;20206;-89
2022/07/10 06:25:18;;;;;;;3.15;1.20;;;17.50;1.00;;;;;;5054307;28;20206;-87
2022/07/10 06:27:47;;;;;;;2.58;1.27;;;17.60;1.00;;;;;;5053784;28;20260;-84
2022/07/10 06:30:14;;;;;;;5.38;1.73;;;17.60;1.00;;;;;;5052420;28;20567;-86
2022/07/10 06:32:41;;;;;;;4.50;1.52;;;17.70;99.90;;;;;;5061532;28;20504;-84
2022/07/10 06:35:08;;;;;;;4.35;1.60;;;17.70;1.00;;;;;;5074151;28;20255;-93
2022/07/10 06:37:36;;;;;;;4.60;1.40;;;17.70;1.00;;;;;;5073533;28;20201;-85
2022/07/10 06:40:03;;;;;;;4.28;1.60;;;17.70;1.00;;;;;;5036134;28;20211;-85
2022/07/10 06:42:31;;;;;;;3.80;1.42;;;17.70;1.00;;;;;;5037697;28;20317;-87
2022/07/10 06:45:00;;;;;;;3.88;1.42;;;17.80;99.90;;;;;;5050985;28;20305;-85
2022/07/10 06:50:11;;;;;;;3.45;1.23;;;17.90;99.90;;;;;;5047293;28;20209;-82
2022/07/10 06:52:38;;;;;;;3.47;1.33;;;18.00;99.90;;;;;;5051334;28;20202;-83
2022/07/10 06:55:06;;;;;;;3.28;1.33;;;18.00;99.90;;;;;;5048589;28;20206;-83
2022/07/10 06:57:33;;;;;;;4.57;1.27;;;18.00;99.90;;;;;;5049861;28;20706;-82
2022/07/10 07:00:02;;;;;;;4.72;1.52;;;18.10;99.90;;;;;;5044295;28;20213;-87
2022/07/10 07:02:29;;;;;;;3.13;1.15;;;18.20;99.90;;;;;;5046061;28;20218;-83
2022/07/10 07:04:55;;;;;;;1.38;1.00;;;18.20;99.90;;;;;;5042032;28;20217;-82
2022/07/10 07:07:22;;;;;;;3.25;1.45;;;18.20;99.90;;;;;;5038001;28;20313;-84
2022/07/10 07:09:50;;;;;;;2.50;1.23;;;18.20;99.90;;;;;;5038935;28;20207;-85
2022/07/10 07:12:17;;;;;;;3.65;1.33;;;18.30;99.90;;;;;;5037914;28;20213;-83
2022/07/10 07:14:44;;;;;;;3.50;1.33;;;18.40;99.90;;;;;;5030954;28;20264;-84
2022/07/10 07:17:14;;;;;;;2.72;1.20;;;18.50;99.90;;;;;;5045866;28;20238;-82
2022/07/10 07:25:11;;;;;;;4.00;1.50;;;18.90;99.90;;;;;;5031573;28;20194;-81
2022/07/10 07:27:39;;;;;;;4.63;1.45;;;18.90;99.90;;;;;;5031074;28;20322;-79
2022/07/10 07:30:08;;;;;;;3.95;1.73;;;19.00;47.40;;;;;;5047664;28;20206;-84
2022/07/10 07:32:36;;;;;;;4.22;1.00;;;19.10;1.00;;;;;;5049025;28;20689;-83
2022/07/10 07:35:04;;;;;;;3.63;1.23;;;19.10;23.50;;;;;;5048983;28;20217;-81
2022/07/10 07:37:38;;;;;;;4.38;1.52;;;19.20;91.10;;;;;;5050863;28;20779;-85
2022/07/10 07:40:07;;;;;;;3.22;1.20;;;19.30;1.00;;;;;;5049530;28;20209;-82
2022/07/10 07:42:34;;;;;;;4.07;1.30;;;19.40;1.00;;;;;;5049650;28;20867;-80
2022/07/10 07:45:01;;;;;;;3.70;1.67;;;19.50;1.00;;;;;;5049487;28;20313;-82
2022/07/10 07:47:28;;;;;;;3.50;1.58;;;19.50;1.00;;;;;;5049468;28;20221;-84
2022/07/10 07:49:57;;;;;;;3.47;1.40;;;19.50;1.00;;;;;;5051376;28;20208;-87
2022/07/10 07:52:23;;;;;;;3.10;1.45;;;19.60;1.00;;;;;;5048432;28;20598;-86
2022/07/10 07:54:51;;;;;;;5.53;1.55;;;19.60;1.00;;;;;;5048780;28;20601;-81
2022/07/10 07:57:18;;;;;;;3.88;1.27;;;19.60;1.00;;;;;;5049055;28;20201;-84
2022/07/10 07:59:45;;;;;;;2.83;1.30;;;19.60;1.00;;;;;;5048634;28;20202;-85
2022/07/10 08:02:12;;;;;;;2.75;1.25;;;19.80;1.00;;;;;;5049476;28;20217;-83
2022/07/10 08:04:39;;;;;;;3.22;1.40;;;19.80;1.00;;;;;;5049095;28;20224;-81
2022/07/10 08:07:07;;;;;;;3.58;1.20;;;19.90;1.00;;;;;;5050190;28;20214;-84
2022/07/10 08:09:34;;;;;;;4.05;1.13;;;20.00;1.00;;;;;;5047631;28;20258;-83
2022/07/10 08:12:01;;;;;;;2.05;1.00;;;19.90;1.00;;;;;;5048632;28;20229;-83
2022/07/10 08:14:29;;;;;;;4.53;1.77;;;20.00;1.00;;;;;;5049493;28;20194;-83
2022/07/10 08:16:56;;;;;;;2.90;1.20;;;19.90;1.00;;;;;;5045455;28;20272;-82
2022/07/10 08:19:22;;;;;;;3.78;1.10;;;19.90;1.00;;;;;;5048949;28;20205;-80
2022/07/10 08:21:49;;;;;;;2.45;1.10;;;19.90;1.00;;;;;;5043731;28;20206;-82
2022/07/10 08:24:18;;;;;;;3.08;1.00;;;20.10;1.00;;;;;;5026912;28;20191;-83
2022/07/10 08:26:45;;;;;;;3.80;1.17;;;20.10;99.90;;;;;;5042726;28;20220;-84
2022/07/10 08:29:12;;;;;;;4.13;1.25;;;20.10;99.90;;;;;;5047394;28;20809;-83
2022/07/10 08:31:40;;;;;;;3.78;1.48;;;20.00;36.30;;;;;;5049819;28;20198;-82
2022/07/10 08:34:07;;;;;;;2.13;0.95;;;20.10;99.90;;;;;;5049152;28;20303;-85
2022/07/10 08:36:33;;;;;;;2.80;1.15;;;20.30;1.00;;;;;;5047584;28;20197;-83
2022/07/10 08:39:01;;;;;;;3.22;1.00;;;20.30;1.00;;;;;;5049607;28;20216;-84
2022/07/10 08:41:32;;;;;;;4.93;1.30;;;20.40;1.00;;;;;;5047788;28;20210;-84
2022/07/10 08:43:59;;;;;;;4.00;1.60;;;20.40;1.00;;;;;;5046380;28;20760;-84
2022/07/10 08:46:26;;;;;;;3.80;1.13;;;20.30;1.00;;;;;;5046755;28;20221;-84
2022/07/10 08:48:55;;;;;;;5.75;1.67;;;20.20;99.90;;;;;;5049421;28;20647;-86
2022/07/10 08:51:31;;;;;;;3.60;1.20;;;20.20;99.90;;;;;;5047125;28;20282;-84
2022/07/10 08:54:01;;;;;;;3.42;1.27;;;20.20;1.00;;;;;;5049768;28;20696;-82
2022/07/10 08:56:31;;;;;;;2.25;1.20;;;20.30;1.00;;;;;;5051253;28;20227;-84
2022/07/10 08:59:00;;;;;;;2.25;0.93;;;20.40;99.90;;;;;;5052919;28;20256;-84
2022/07/10 09:01:27;;;;;;;2.88;1.20;;;20.40;1.00;;;;;;5054273;28;20938;-81
2022/07/10 09:03:54;;;;;;;3.33;1.50;;;20.40;1.00;;;;;;5052868;28;20201;-89
2022/07/10 09:06:20;;;;;;;4.50;1.52;;;20.40;99.90;;;;;;5051978;28;20208;-81
2022/07/10 09:09:02;;;;;;;4.13;1.30;;;20.40;6.10;;;;;;5050978;28;20210;-82
2022/07/10 09:11:31;;;;;;;4.93;1.48;;;20.40;1.00;;;;;;5048057;28;20312;-81
2022/07/10 09:13:59;;;;;;;4.35;1.33;;;20.40;1.00;;;;;;5048583;28;20206;-85
2022/07/10 09:16:27;;;;;;;2.95;1.10;;;20.40;99.90;;;;;;5048204;28;20229;-82
2022/07/10 09:18:55;;;;;;;2.90;1.15;;;20.50;1.00;;;;;;5047753;28;20227;-82
2022/07/10 09:21:22;;;;;;;2.25;1.13;;;20.50;99.90;;;;;;5045451;28;20199;-83
2022/07/10 09:23:50;;;;;;;4.18;1.35;;;20.60;1.00;;;;;;5048352;28;20202;-83
2022/07/10 09:26:18;;;;;;;4.75;1.38;;;20.60;1.00;;;;;;5047977;28;20225;-79
2022/07/10 09:28:46;;;;;;;4.45;1.20;;;20.80;1.00;;;;;;5052357;28;20341;-86
2022/07/10 09:31:13;;;;;;;2.63;1.35;;;20.90;1.00;;;;;;5050805;28;20229;-83
2022/07/10 09:33:41;;;;;;;5.18;1.30;;;21.00;99.90;;;;;;5049823;28;20202;-86
2022/07/10 09:36:10;;;;;;;3.13;1.25;;;21.10;99.90;;;;;;5045252;28;20892;-81
2022/07/10 09:38:51;;;;;;;3.13;1.40;;;21.10;99.90;;;;;;5048176;28;20852;-80
2022/07/10 09:41:20;;;;;;;3.60;1.20;;;21.00;99.90;;;;;;5046657;28;20242;-83
2022/07/10 09:43:50;;;;;;;3.17;1.27;;;21.10;99.90;;;;;;5045815;28;20230;-85
2022/07/10 09:46:19;;;;;;;4.57;1.30;;;21.20;99.90;;;;;;5042639;28;20221;-81
2022/07/10 09:48:45;;;;;;;3.40;1.08;;;21.30;1.00;;;;;;5047258;28;20599;-81
2022/07/10 09:51:13;;;;;;;3.38;1.13;;;21.50;1.00;;;;;;5032966;28;20206;-81
2022/07/10 09:53:41;;;;;;;3.50;1.60;;;21.50;99.90;;;;;;5034203;28;20205;-85
2022/07/10 09:56:09;;;;;;;1.85;1.00;;;21.50;1.00;;;;;;5035703;28;20302;-81
2022/07/10 09:58:37;;;;;;;3.63;1.08;;;21.50;1.00;;;;;;5041035;28;20916;-82
2022/07/10 10:01:06;;;;;;;3.10;1.55;;;21.60;1.00;;;;;;5049750;28;20210;-81
2022/07/10 10:03:36;;;;;;;4.18;1.23;;;21.70;1.00;;;;;;5039837;28;20242;-83
2022/07/10 10:06:05;;;;;;;2.05;1.30;;;21.70;1.00;;;;;;5029693;28;20203;-85
2022/07/10 10:08:38;;;;;;;5.95;1.52;;;21.90;1.00;;;;;;5031482;28;20311;-85
2022/07/10 10:11:09;;;;;;;6.03;1.60;;;21.90;1.00;;;;;;5033356;28;20202;-85
2022/07/10 10:13:36;;;;;;;2.40;1.58;;;22.00;1.00;;;;;;5050424;28;20194;-79
2022/07/10 10:16:07;;;;;;;3.55;1.55;;;22.10;1.00;;;;;;5048723;28;20237;-82
2022/07/10 10:20:36;;;;;;;3.78;1.60;;;22.20;1.00;;;;;;5050523;28;20228;-87
2022/07/10 10:21:24;;;;;;;3.53;1.17;;;22.30;1.00;;;;;;5050285;28;20198;-80
2022/07/10 10:23:53;;;;;;;4.28;1.33;;;22.30;99.90;;;;;;5050331;28;20206;-82
2022/07/10 10:26:22;;;;;;;2.65;1.17;;;22.30;99.10;;;;;;5048626;28;20209;-81
2022/07/10 10:28:50;;;;;;;3.35;1.52;;;22.30;1.00;;;;;;5050053;28;20656;-82
2022/07/10 10:31:19;;;;;;;4.25;1.20;;;22.30;99.90;;;;;;5050913;28;20500;-84
2022/07/10 10:33:48;;;;;;;3.53;1.20;;;22.20;1.00;;;;;;5050900;28;20233;-83
2022/07/10 10:36:41;;;;;;;3.22;1.10;;;22.20;1.00;;;;;;5047009;28;20206;-81
2022/07/10 10:39:13;;;;;;;2.78;1.23;;;22.30;99.90;;;;;;5048475;28;20347;-80
2022/07/10 10:41:41;;;;;;;3.95;1.30;;;22.20;99.90;;;;;;5049775;28;20209;-84
2022/07/10 10:44:32;;;;;;;5.20;1.23;;;22.30;1.00;;;;;;5047140;28;20226;-89
2022/07/10 10:47:10;;;;;;;4.00;1.13;;;22.50;89.30;;;;;;5053715;28;20248;-84
2022/07/10 10:49:56;;;;;;;2.72;1.45;;;22.80;1.00;;;;;;5057937;28;20237;-83
2022/07/10 10:52:24;;;;;;;4.38;1.15;;;23.00;74.00;;;;;;5056344;28;20221;-84
2022/07/10 10:55:07;;;;;;;3.70;1.33;;;23.20;1.00;;;;;;5057125;28;20210;-84
2022/07/10 10:57:44;;;;;;;4.68;1.30;;;23.30;1.00;;;;;;5048301;28;20298;-82
2022/07/10 11:00:15;;;;;;;2.20;1.08;;;23.40;99.90;;;;;;5052231;28;20205;-83
2022/07/10 11:02:44;;;;;;;5.20;1.50;;;23.50;1.00;;;;;;5064017;28;20218;-84
2022/07/10 11:05:45;;;;;;;4.05;1.55;;;23.40;1.00;;;;;;5056851;28;20684;-85
2022/07/10 11:08:13;;;;;;;2.60;1.40;;;23.40;1.00;;;;;;5057164;28;20212;-87
2022/07/10 11:10:42;;;;;;;3.38;1.40;;;23.40;99.90;;;;;;5056249;28;20204;-84
2022/07/10 11:13:11;;;;;;;2.92;1.20;;;23.50;1.00;;;;;;5043929;28;20194;-81
2022/07/10 11:15:39;;;;;;;2.67;1.30;;;23.60;1.00;;;;;;5030991;28;20633;-85
2022/07/10 11:18:08;;;;;;;2.47;1.55;;;23.70;1.00;;;;;;5029947;28;20206;-87
2022/07/10 11:20:37;;;;;;;3.25;1.35;;;23.90;99.90;;;;;;5046990;28;20301;-79
2022/07/10 11:23:39;;;;;;;3.65;1.85;;;24.00;1.00;;;;;;5049651;28;20509;-82
2022/07/10 11:26:08;;;;;;;3.60;1.50;;;23.90;99.90;;;;;;5051189;28;20202;-87
2022/07/10 11:28:50;;;;;;;3.95;1.48;;;24.00;99.90;;;;;;5042462;28;20262;-84
2022/07/10 11:31:17;;;;;;;4.45;1.80;;;23.90;99.90;;;;;;5031180;28;20191;-86
2022/07/10 11:33:48;;;;;;;3.28;1.45;;;23.80;59.90;;;;;;5038617;28;20217;-82
2022/07/10 11:36:16;;;;;;;4.75;1.90;;;23.80;1.00;;;;;;5050217;28;20182;-84
2022/07/10 11:38:44;;;;;;;5.85;1.60;;;23.80;1.00;;;;;;5049601;28;20209;-85
2022/07/10 11:41:19;;;;;;;3.80;1.38;;;23.70;1.00;;;;;;5049017;28;20197;-85
2022/07/10 11:43:50;;;;;;;2.47;1.48;;;23.90;1.00;;;;;;5047995;28;20282;-81
2022/07/10 11:46:17;;;;;;;4.75;1.20;;;23.80;1.00;;;;;;5049850;28;20206;-86
2022/07/10 11:48:46;;;;;;;3.42;1.30;;;23.70;1.00;;;;;;5050931;28;20226;-83
2022/07/10 11:51:24;;;;;;;2.17;1.40;;;23.80;1.00;;;;;;5050409;28;20206;-83
2022/07/10 11:53:59;;;;;;;4.38;1.27;;;23.80;1.00;;;;;;5049910;28;20198;-82
2022/07/10 11:56:27;;;;;;;3.85;1.17;;;23.70;1.00;;;;;;5050044;28;20240;-86
2022/07/10 11:58:58;;;;;;;1.25;0.80;;;23.70;1.00;;;;;;5046454;28;20277;-86
2022/07/10 12:01:25;;;;;;;3.90;1.08;;;23.80;1.00;;;;;;5027322;28;20265;-86
2022/07/10 12:03:59;;;;;;;4.85;1.40;;;23.90;1.00;;;;;;5043535;28;20212;-85
2022/07/10 12:06:26;;;;;;;3.88;1.83;;;23.90;1.00;;;;;;5049217;28;20204;-86
2022/07/10 12:08:54;;;;;;;4.28;1.67;;;23.90;1.00;;;;;;5047262;28;20287;-82
2022/07/10 12:11:22;;;;;;;2.95;1.30;;;23.90;1.00;;;;;;5046233;28;20487;-80
2022/07/10 12:13:51;;;;;;;2.58;1.10;;;24.10;1.00;;;;;;5047455;28;20202;-81
2022/07/10 12:16:18;;;;;;;4.00;1.30;;;24.20;99.90;;;;;;5049365;28;20234;-85
2022/07/10 12:18:47;;;;;;;3.65;1.35;;;24.20;99.90;;;;;;5047004;28;20230;-83
2022/07/10 12:21:16;;;;;;;3.42;1.35;;;24.40;99.90;;;;;;5046130;28;20205;-81
2022/07/10 12:23:46;;;;;;;4.03;1.38;;;24.20;99.90;;;;;;5048362;28;20292;-85
2022/07/10 12:26:14;;;;;;;2.15;1.30;;;24.10;1.00;;;;;;5047928;28;20512;-82
2022/07/10 12:28:55;;;;;;;5.68;1.52;;;24.10;1.00;;;;;;5046194;28;20229;-90
2022/07/10 12:31:27;;;;;;;4.07;1.15;;;24.10;1.00;;;;;;5046912;28;20490;-84
2022/07/10 12:33:57;;;;;;;3.13;1.30;;;24.00;1.00;;;;;;5045778;28;20206;-82
2022/07/10 12:36:26;;;;;;;1.67;1.05;;;23.90;1.00;;;;;;5046526;28;20206;-81
2022/07/10 12:38:58;;;;;;;2.85;1.65;;;24.00;1.00;;;;;;5046750;28;20496;-83
2022/07/10 12:41:25;;;;;;;2.38;1.48;;;24.30;1.00;;;;;;5045132;28;20301;-87
2022/07/10 12:43:52;;;;;;;3.78;1.75;;;24.40;1.00;;;;;;5047083;28;20236;-82
2022/07/10 12:46:21;;;;;;;2.35;1.23;;;24.50;1.00;;;;;;5046143;28;20608;-82
2022/07/10 12:49:08;;;;;;;3.28;1.08;;;24.40;1.00;;;;;;5028011;28;20309;-90
2022/07/10 12:51:47;;;;;;;3.20;1.25;;;24.20;99.90;;;;;;5029332;28;20595;-82
2022/07/10 12:54:36;;;;;;;3.63;1.30;;;24.10;99.90;;;;;;5029120;28;20209;-84
2022/07/10 12:57:05;;;;;;;6.55;1.95;;;24.00;1.00;;;;;;5028887;28;20198;-82
2022/07/10 12:59:35;;;;;;;3.05;1.55;;;23.90;99.90;;;;;;5030483;28;20281;-86
2022/07/10 13:02:16;;;;;;;3.30;1.10;;;24.10;1.00;;;;;;5053742;28;20212;-84
2022/07/10 13:04:53;;;;;;;2.92;1.17;;;24.00;99.90;;;;;;5050737;28;20267;-82
2022/07/10 13:07:29;;;;;;;5.57;1.42;;;24.00;99.90;;;;;;5053768;28;20194;-88
2022/07/10 13:09:56;;;;;;;5.82;1.48;;;24.00;99.90;;;;;;5052329;28;20230;-86
2022/07/10 13:12:23;;;;;;;3.22;1.10;;;24.10;99.90;;;;;;5051754;28;20276;-88
2022/07/10 13:14:50;;;;;;;3.28;1.27;;;24.20;99.90;;;;;;5053926;28;20304;-85